sensor_id;sensor_type;location;lat;lon;timestamp;temperature;humidity
46784;DHT22;32544;52.832;13.816;2023-05-07T00:00:24;24.70;45.00
46784;DHT22;32544;52.832;13.816;2023-05-07T00:01:24;24.70;45.00
46784;DHT22;32544;52.832;13.816;2023-05-07T00:02:26;24.70;45.00
46784;DHT22;32544;52.832;13.816;2023-05-07T00:03:26;24.70;45.00
46784;DHT22;32544;52.832;13.816;2023-05-07T00:04:27;24.70;45.00
46784;DHT22;32544;52.832;13.816;2023-05-07T00:05:28;24.70;45.00
46784;DHT22;32544;52.832;13.816;2023-05-07T00:06:29;24.80;45.00
46784;DHT22;32544;52.832;13.816;2023-05-07T00:07:30;24.70;45.00
46784;DHT22;32544;52.832;13.816;2023-05-07T00:08:30;24.70;45.00
46784;DHT22;32544;52.832;13.816;2023-05-07T00:09:31;24.80;45.00
46784;DHT22;32544;52.832;13.816;2023-05-07T00:10:31;24.80;45.00
46784;DHT22;32544;52.832;13.816;2023-05-07T00:11:32;24.70;45.00
46784;DHT22;32544;52.832;13.816;2023-05-07T00:12:33;24.70;45.00
46784;DHT22;32544;52.832;13.816;2023-05-07T00:13:34;24.70;45.00
46784;DHT22;32544;52.832;13.816;2023-05-07T00:14:35;24.80;45.00
46784;DHT22;32544;52.832;13.816;2023-05-07T00:15:36;24.70;45.00
46784;DHT22;32544;52.832;13.816;2023-05-07T00:16:36;24.70;45.00
46784;DHT22;32544;52.832;13.816;2023-05-07T00:17:37;24.70;45.00
46784;DHT22;32544;52.832;13.816;2023-05-07T00:18:37;24.70;45.60
46784;DHT22;32544;52.832;13.816;2023-05-07T00:19:38;24.70;45.00
46784;DHT22;32544;52.832;13.816;2023-05-07T00:20:38;24.70;45.00
46784;DHT22;32544;52.832;13.816;2023-05-07T00:21:39;24.70;45.00
46784;DHT22;32544;52.832;13.816;2023-05-07T00:22:40;24.70;45.00
46784;DHT22;32544;52.832;13.816;2023-05-07T00:23:40;24.70;45.00
46784;DHT22;32544;52.832;13.816;2023-05-07T00:24:41;24.70;45.00
46784;DHT22;32544;52.832;13.816;2023-05-07T00:25:41;24.70;45.00
46784;DHT22;32544;52.832;13.816;2023-05-07T00:26:42;24.80;45.00
46784;DHT22;32544;52.832;13.816;2023-05-07T00:27:42;24.70;45.00
46784;DHT22;32544;52.832;13.816;2023-05-07T00:28:43;24.70;45.00
46784;DHT22;32544;52.832;13.816;2023-05-07T00:29:44;24.70;45.00
46784;DHT22;32544;52.832;13.816;2023-05-07T00:30:45;24.70;45.00
46784;DHT22;32544;52.832;13.816;2023-05-07T00:31:45;24.70;45.00
46784;DHT22;32544;52.832;13.816;2023-05-07T00:32:46;24.70;45.00
46784;DHT22;32544;52.832;13.816;2023-05-07T00:33:49;24.70;45.00
46784;DHT22;32544;52.832;13.816;2023-05-07T00:34:49;24.70;45.00
46784;DHT22;32544;52.832;13.816;2023-05-07T00:35:51;24.70;45.00
46784;DHT22;32544;52.832;13.816;2023-05-07T00:36:51;24.70;45.00
46784;DHT22;32544;52.832;13.816;2023-05-07T00:37:52;24.70;45.00
46784;DHT22;32544;52.832;13.816;2023-05-07T00:38:53;24.70;45.00
46784;DHT22;32544;52.832;13.816;2023-05-07T00:39:54;24.70;45.00
46784;DHT22;32544;52.832;13.816;2023-05-07T00:40:55;24.70;45.00
46784;DHT22;32544;52.832;13.816;2023-05-07T00:41:56;24.70;45.00
46784;DHT22;32544;52.832;13.816;2023-05-07T00:42:57;24.70;45.00
46784;DHT22;32544;52.832;13.816;2023-05-07T00:43:58;24.70;45.00
46784;DHT22;32544;52.832;13.816;2023-05-07T00:44:58;24.70;45.00
46784;DHT22;32544;52.832;13.816;2023-05-07T00:45:59;24.70;45.00
46784;DHT22;32544;52.832;13.816;2023-05-07T00:47:01;24.70;45.00
46784;DHT22;32544;52.832;13.816;2023-05-07T00:48:03;24.70;45.00
46784;DHT22;32544;52.832;13.816;2023-05-07T00:49:04;24.70;44.90
46784;DHT22;32544;52.832;13.816;2023-05-07T00:50:05;24.70;44.90
46784;DHT22;32544;52.832;13.816;2023-05-07T00:51:06;24.70;44.90
46784;DHT22;32544;52.832;13.816;2023-05-07T00:52:07;24.70;44.90
46784;DHT22;32544;52.832;13.816;2023-05-07T00:53:09;24.70;44.90
46784;DHT22;32544;52.832;13.816;2023-05-07T00:54:10;24.70;44.90
46784;DHT22;32544;52.832;13.816;2023-05-07T00:55:11;24.80;45.00
46784;DHT22;32544;52.832;13.816;2023-05-07T00:56:13;24.80;45.00
46784;DHT22;32544;52.832;13.816;2023-05-07T00:57:14;24.80;45.00
46784;DHT22;32544;52.832;13.816;2023-05-07T00:58:15;24.70;44.90
46784;DHT22;32544;52.832;13.816;2023-05-07T00:59:15;24.70;44.90
46784;DHT22;32544;52.832;13.816;2023-05-07T01:00:16;24.70;44.90
46784;DHT22;32544;52.832;13.816;2023-05-07T01:01:17;24.80;44.90
46784;DHT22;32544;52.832;13.816;2023-05-07T01:02:17;24.80;44.90
46784;DHT22;32544;52.832;13.816;2023-05-07T01:03:18;24.80;44.90
46784;DHT22;32544;52.832;13.816;2023-05-07T01:04:18;24.80;44.90
46784;DHT22;32544;52.832;13.816;2023-05-07T01:05:19;24.70;44.90
46784;DHT22;32544;52.832;13.816;2023-05-07T01:06:20;24.70;44.90
46784;DHT22;32544;52.832;13.816;2023-05-07T01:07:23;24.70;44.90
46784;DHT22;32544;52.832;13.816;2023-05-07T01:08:23;24.80;44.90
46784;DHT22;32544;52.832;13.816;2023-05-07T01:09:25;24.70;44.80
46784;DHT22;32544;52.832;13.816;2023-05-07T01:10:26;24.70;44.90
46784;DHT22;32544;52.832;13.816;2023-05-07T01:11:27;24.70;44.80
46784;DHT22;32544;52.832;13.816;2023-05-07T01:12:28;24.70;44.90
46784;DHT22;32544;52.832;13.816;2023-05-07T01:13:28;24.80;44.90
46784;DHT22;32544;52.832;13.816;2023-05-07T01:14:29;24.80;44.90
46784;DHT22;32544;52.832;13.816;2023-05-07T01:15:31;24.80;44.90
46784;DHT22;32544;52.832;13.816;2023-05-07T01:16:31;24.70;44.90
46784;DHT22;32544;52.832;13.816;2023-05-07T01:17:33;24.80;44.90
46784;DHT22;32544;52.832;13.816;2023-05-07T01:18:34;24.80;44.90
46784;DHT22;32544;52.832;13.816;2023-05-07T01:19:35;24.80;44.90
46784;DHT22;32544;52.832;13.816;2023-05-07T01:20:36;24.70;44.90
46784;DHT22;32544;52.832;13.816;2023-05-07T01:21:37;24.80;44.90
46784;DHT22;32544;52.832;13.816;2023-05-07T01:22:39;24.70;44.80
46784;DHT22;32544;52.832;13.816;2023-05-07T01:23:40;24.70;44.80
46784;DHT22;32544;52.832;13.816;2023-05-07T01:24:41;24.80;44.90
46784;DHT22;32544;52.832;13.816;2023-05-07T01:25:43;24.80;44.90
46784;DHT22;32544;52.832;13.816;2023-05-07T01:26:45;24.80;44.90
46784;DHT22;32544;52.832;13.816;2023-05-07T01:27:48;24.80;44.90
46784;DHT22;32544;52.832;13.816;2023-05-07T01:28:49;24.70;44.80
46784;DHT22;32544;52.832;13.816;2023-05-07T01:29:49;24.80;44.90
46784;DHT22;32544;52.832;13.816;2023-05-07T01:30:52;24.80;44.90
46784;DHT22;32544;52.832;13.816;2023-05-07T01:31:53;24.80;44.90
46784;DHT22;32544;52.832;13.816;2023-05-07T01:32:58;24.80;44.90
46784;DHT22;32544;52.832;13.816;2023-05-07T01:34:00;24.80;44.90
46784;DHT22;32544;52.832;13.816;2023-05-07T01:35:01;24.70;44.80
46784;DHT22;32544;52.832;13.816;2023-05-07T01:36:02;24.80;44.90
46784;DHT22;32544;52.832;13.816;2023-05-07T01:37:06;24.80;44.90
46784;DHT22;32544;52.832;13.816;2023-05-07T01:38:07;24.80;44.90
46784;DHT22;32544;52.832;13.816;2023-05-07T01:39:08;24.80;44.90
46784;DHT22;32544;52.832;13.816;2023-05-07T01:40:09;24.70;44.80
46784;DHT22;32544;52.832;13.816;2023-05-07T01:41:11;24.80;44.90
46784;DHT22;32544;52.832;13.816;2023-05-07T01:42:12;24.80;44.90
46784;DHT22;32544;52.832;13.816;2023-05-07T01:43:13;24.80;44.80
46784;DHT22;32544;52.832;13.816;2023-05-07T01:44:14;24.70;44.80
46784;DHT22;32544;52.832;13.816;2023-05-07T01:45:15;24.70;44.80
46784;DHT22;32544;52.832;13.816;2023-05-07T01:46:15;24.70;44.80
46784;DHT22;32544;52.832;13.816;2023-05-07T01:47:16;24.70;44.80
46784;DHT22;32544;52.832;13.816;2023-05-07T01:48:17;24.70;44.80
46784;DHT22;32544;52.832;13.816;2023-05-07T01:49:18;24.70;44.80
46784;DHT22;32544;52.832;13.816;2023-05-07T01:50:18;24.70;44.90
46784;DHT22;32544;52.832;13.816;2023-05-07T01:51:20;24.70;44.80
46784;DHT22;32544;52.832;13.816;2023-05-07T01:52:22;24.70;44.80
46784;DHT22;32544;52.832;13.816;2023-05-07T01:53:23;24.70;44.90
46784;DHT22;32544;52.832;13.816;2023-05-07T01:54:26;24.70;44.90
46784;DHT22;32544;52.832;13.816;2023-05-07T01:55:31;24.70;44.90
46784;DHT22;32544;52.832;13.816;2023-05-07T01:56:32;24.70;44.90
46784;DHT22;32544;52.832;13.816;2023-05-07T01:57:33;24.70;44.90
46784;DHT22;32544;52.832;13.816;2023-05-07T01:58:34;24.70;44.80
46784;DHT22;32544;52.832;13.816;2023-05-07T01:59:35;24.80;44.90
46784;DHT22;32544;52.832;13.816;2023-05-07T02:00:36;24.70;44.80
46784;DHT22;32544;52.832;13.816;2023-05-07T02:01:36;24.70;44.80
46784;DHT22;32544;52.832;13.816;2023-05-07T02:02:37;24.70;44.80
46784;DHT22;32544;52.832;13.816;2023-05-07T02:03:38;24.80;44.90
46784;DHT22;32544;52.832;13.816;2023-05-07T02:04:45;24.70;44.90
46784;DHT22;32544;52.832;13.816;2023-05-07T02:05:47;24.80;44.90
46784;DHT22;32544;52.832;13.816;2023-05-07T02:07:01;24.70;44.90
46784;DHT22;32544;52.832;13.816;2023-05-07T02:08:02;24.80;44.90
46784;DHT22;32544;52.832;13.816;2023-05-07T02:09:05;24.80;45.00
46784;DHT22;32544;52.832;13.816;2023-05-07T02:10:06;24.70;44.90
46784;DHT22;32544;52.832;13.816;2023-05-07T02:11:07;24.70;44.90
46784;DHT22;32544;52.832;13.816;2023-05-07T02:12:08;24.70;45.00
46784;DHT22;32544;52.832;13.816;2023-05-07T02:13:09;24.70;45.00
46784;DHT22;32544;52.832;13.816;2023-05-07T02:14:10;24.70;44.90
46784;DHT22;32544;52.832;13.816;2023-05-07T02:15:10;24.60;44.80
46784;DHT22;32544;52.832;13.816;2023-05-07T02:16:11;24.60;44.50
46784;DHT22;32544;52.832;13.816;2023-05-07T02:17:14;24.60;44.50
46784;DHT22;32544;52.832;13.816;2023-05-07T02:18:15;24.60;44.40
46784;DHT22;32544;52.832;13.816;2023-05-07T02:19:15;24.60;44.20
46784;DHT22;32544;52.832;13.816;2023-05-07T02:20:16;24.60;44.20
46784;DHT22;32544;52.832;13.816;2023-05-07T02:21:16;24.60;44.10
46784;DHT22;32544;52.832;13.816;2023-05-07T02:22:17;24.60;44.20
46784;DHT22;32544;52.832;13.816;2023-05-07T02:23:18;24.50;44.10
46784;DHT22;32544;52.832;13.816;2023-05-07T02:24:19;24.50;44.00
46784;DHT22;32544;52.832;13.816;2023-05-07T02:25:19;24.50;44.00
46784;DHT22;32544;52.832;13.816;2023-05-07T02:26:20;24.50;44.00
46784;DHT22;32544;52.832;13.816;2023-05-07T02:27:21;24.50;44.00
46784;DHT22;32544;52.832;13.816;2023-05-07T02:28:22;24.60;44.00
46784;DHT22;32544;52.832;13.816;2023-05-07T02:29:34;24.60;44.00
46784;DHT22;32544;52.832;13.816;2023-05-07T02:30:36;24.60;44.00
46784;DHT22;32544;52.832;13.816;2023-05-07T02:31:36;24.60;44.10
46784;DHT22;32544;52.832;13.816;2023-05-07T02:32:37;24.50;44.20
46784;DHT22;32544;52.832;13.816;2023-05-07T02:33:37;24.50;44.20
46784;DHT22;32544;52.832;13.816;2023-05-07T02:34:41;24.50;44.20
46784;DHT22;32544;52.832;13.816;2023-05-07T02:35:41;24.50;44.20
46784;DHT22;32544;52.832;13.816;2023-05-07T02:36:42;24.60;44.20
46784;DHT22;32544;52.832;13.816;2023-05-07T02:37:46;24.60;44.20
46784;DHT22;32544;52.832;13.816;2023-05-07T02:38:47;24.50;44.20
46784;DHT22;32544;52.832;13.816;2023-05-07T02:39:48;24.60;44.20
46784;DHT22;32544;52.832;13.816;2023-05-07T02:40:49;24.60;44.20
46784;DHT22;32544;52.832;13.816;2023-05-07T02:41:50;24.60;44.20
46784;DHT22;32544;52.832;13.816;2023-05-07T02:42:50;24.60;44.80
46784;DHT22;32544;52.832;13.816;2023-05-07T02:43:51;24.60;44.20
46784;DHT22;32544;52.832;13.816;2023-05-07T02:44:52;24.60;44.10
46784;DHT22;32544;52.832;13.816;2023-05-07T02:46:05;24.60;44.10
46784;DHT22;32544;52.832;13.816;2023-05-07T02:47:07;24.60;44.10
46784;DHT22;32544;52.832;13.816;2023-05-07T02:48:10;24.70;44.10
46784;DHT22;32544;52.832;13.816;2023-05-07T02:49:10;24.70;44.10
46784;DHT22;32544;52.832;13.816;2023-05-07T02:50:11;24.70;44.10
46784;DHT22;32544;52.832;13.816;2023-05-07T02:51:12;24.70;44.10
46784;DHT22;32544;52.832;13.816;2023-05-07T02:52:14;24.70;44.00
46784;DHT22;32544;52.832;13.816;2023-05-07T02:53:15;24.70;44.00
46784;DHT22;32544;52.832;13.816;2023-05-07T02:54:15;24.70;44.00
46784;DHT22;32544;52.832;13.816;2023-05-07T02:55:16;24.70;44.00
46784;DHT22;32544;52.832;13.816;2023-05-07T02:56:17;24.70;44.00
46784;DHT22;32544;52.832;13.816;2023-05-07T02:57:17;24.80;44.00
46784;DHT22;32544;52.832;13.816;2023-05-07T02:58:18;24.80;44.00
46784;DHT22;32544;52.832;13.816;2023-05-07T02:59:18;24.80;44.00
46784;DHT22;32544;52.832;13.816;2023-05-07T03:00:19;24.80;44.00
46784;DHT22;32544;52.832;13.816;2023-05-07T03:01:29;24.70;43.90
46784;DHT22;32544;52.832;13.816;2023-05-07T03:02:35;24.80;44.00
46784;DHT22;32544;52.832;13.816;2023-05-07T03:03:36;24.80;44.00
46784;DHT22;32544;52.832;13.816;2023-05-07T03:04:36;24.80;43.90
46784;DHT22;32544;52.832;13.816;2023-05-07T03:05:37;24.80;44.00
46784;DHT22;32544;52.832;13.816;2023-05-07T03:06:37;24.80;44.00
46784;DHT22;32544;52.832;13.816;2023-05-07T03:07:38;24.80;44.00
46784;DHT22;32544;52.832;13.816;2023-05-07T03:08:39;24.80;44.00
46784;DHT22;32544;52.832;13.816;2023-05-07T03:09:39;24.80;44.00
46784;DHT22;32544;52.832;13.816;2023-05-07T03:10:40;24.80;44.00
46784;DHT22;32544;52.832;13.816;2023-05-07T03:11:40;24.80;44.00
46784;DHT22;32544;52.832;13.816;2023-05-07T03:12:41;24.80;44.00
46784;DHT22;32544;52.832;13.816;2023-05-07T03:13:43;24.80;44.00
46784;DHT22;32544;52.832;13.816;2023-05-07T03:14:44;24.80;44.00
46784;DHT22;32544;52.832;13.816;2023-05-07T03:15:44;24.80;44.00
46784;DHT22;32544;52.832;13.816;2023-05-07T03:16:45;24.80;44.00
46784;DHT22;32544;52.832;13.816;2023-05-07T03:17:46;24.80;44.00
46784;DHT22;32544;52.832;13.816;2023-05-07T03:18:46;24.80;44.00
46784;DHT22;32544;52.832;13.816;2023-05-07T03:19:47;24.80;44.00
46784;DHT22;32544;52.832;13.816;2023-05-07T03:20:48;24.80;44.00
46784;DHT22;32544;52.832;13.816;2023-05-07T03:21:49;24.80;44.00
46784;DHT22;32544;52.832;13.816;2023-05-07T03:22:51;24.80;44.00
46784;DHT22;32544;52.832;13.816;2023-05-07T03:23:51;24.80;44.00
46784;DHT22;32544;52.832;13.816;2023-05-07T03:24:52;24.80;44.00
46784;DHT22;32544;52.832;13.816;2023-05-07T03:25:52;24.70;44.00
46784;DHT22;32544;52.832;13.816;2023-05-07T03:26:53;24.80;44.00
46784;DHT22;32544;52.832;13.816;2023-05-07T03:27:54;24.70;44.00
46784;DHT22;32544;52.832;13.816;2023-05-07T03:28:58;24.80;44.00
46784;DHT22;32544;52.832;13.816;2023-05-07T03:29:59;24.80;44.00
46784;DHT22;32544;52.832;13.816;2023-05-07T03:30:59;24.70;44.60
46784;DHT22;32544;52.832;13.816;2023-05-07T03:32:00;24.80;44.00
46784;DHT22;32544;52.832;13.816;2023-05-07T03:33:01;24.70;44.00
46784;DHT22;32544;52.832;13.816;2023-05-07T03:34:02;24.70;44.00
46784;DHT22;32544;52.832;13.816;2023-05-07T03:35:03;24.70;44.00
46784;DHT22;32544;52.832;13.816;2023-05-07T03:36:03;24.70;44.00
46784;DHT22;32544;52.832;13.816;2023-05-07T03:37:05;24.70;44.00
46784;DHT22;32544;52.832;13.816;2023-05-07T03:38:05;24.70;44.00
46784;DHT22;32544;52.832;13.816;2023-05-07T03:39:08;24.70;44.00
46784;DHT22;32544;52.832;13.816;2023-05-07T03:40:13;24.70;44.00
46784;DHT22;32544;52.832;13.816;2023-05-07T03:41:19;24.70;44.00
46784;DHT22;32544;52.832;13.816;2023-05-07T03:42:21;24.70;44.10
46784;DHT22;32544;52.832;13.816;2023-05-07T03:43:24;24.70;44.00
46784;DHT22;32544;52.832;13.816;2023-05-07T03:44:32;24.70;44.10
46784;DHT22;32544;52.832;13.816;2023-05-07T03:45:33;24.70;44.10
46784;DHT22;32544;52.832;13.816;2023-05-07T03:46:54;24.70;44.10
46784;DHT22;32544;52.832;13.816;2023-05-07T03:47:55;24.70;44.10
46784;DHT22;32544;52.832;13.816;2023-05-07T03:48:56;24.70;44.10
46784;DHT22;32544;52.832;13.816;2023-05-07T03:49:57;24.70;44.10
46784;DHT22;32544;52.832;13.816;2023-05-07T03:50:59;24.60;44.10
46784;DHT22;32544;52.832;13.816;2023-05-07T03:52:03;24.60;44.20
46784;DHT22;32544;52.832;13.816;2023-05-07T03:53:05;24.60;44.10
46784;DHT22;32544;52.832;13.816;2023-05-07T03:54:08;24.60;44.10
46784;DHT22;32544;52.832;13.816;2023-05-07T03:55:09;24.60;44.10
46784;DHT22;32544;52.832;13.816;2023-05-07T03:56:12;24.60;44.10
46784;DHT22;32544;52.832;13.816;2023-05-07T03:57:14;24.60;44.10
46784;DHT22;32544;52.832;13.816;2023-05-07T03:58:15;24.60;44.10
46784;DHT22;32544;52.832;13.816;2023-05-07T03:59:16;24.60;44.10
46784;DHT22;32544;52.832;13.816;2023-05-07T04:00:18;24.60;44.20
46784;DHT22;32544;52.832;13.816;2023-05-07T04:01:23;24.60;44.20
46784;DHT22;32544;52.832;13.816;2023-05-07T04:02:24;24.60;44.20
46784;DHT22;32544;52.832;13.816;2023-05-07T04:03:25;24.60;44.20
46784;DHT22;32544;52.832;13.816;2023-05-07T04:04:26;24.60;44.20
46784;DHT22;32544;52.832;13.816;2023-05-07T04:05:26;24.60;44.20
46784;DHT22;32544;52.832;13.816;2023-05-07T04:06:32;24.60;44.20
46784;DHT22;32544;52.832;13.816;2023-05-07T04:07:33;24.60;44.20
46784;DHT22;32544;52.832;13.816;2023-05-07T04:08:33;24.60;44.20
46784;DHT22;32544;52.832;13.816;2023-05-07T04:09:34;24.60;44.20
46784;DHT22;32544;52.832;13.816;2023-05-07T04:10:34;24.60;44.20
46784;DHT22;32544;52.832;13.816;2023-05-07T04:11:39;24.60;44.20
46784;DHT22;32544;52.832;13.816;2023-05-07T04:12:44;24.60;44.30
46784;DHT22;32544;52.832;13.816;2023-05-07T04:13:49;24.60;44.30
46784;DHT22;32544;52.832;13.816;2023-05-07T04:14:54;24.60;44.30
46784;DHT22;32544;52.832;13.816;2023-05-07T04:15:55;24.60;44.30
46784;DHT22;32544;52.832;13.816;2023-05-07T04:16:56;24.60;44.30
46784;DHT22;32544;52.832;13.816;2023-05-07T04:17:56;24.50;44.30
46784;DHT22;32544;52.832;13.816;2023-05-07T04:18:58;24.50;44.30
46784;DHT22;32544;52.832;13.816;2023-05-07T04:19:59;24.50;44.30
46784;DHT22;32544;52.832;13.816;2023-05-07T04:21:00;24.50;44.30
46784;DHT22;32544;52.832;13.816;2023-05-07T04:22:01;24.50;44.30
46784;DHT22;32544;52.832;13.816;2023-05-07T04:23:03;24.50;44.40
46784;DHT22;32544;52.832;13.816;2023-05-07T04:24:04;24.50;44.40
46784;DHT22;32544;52.832;13.816;2023-05-07T04:25:05;24.50;44.40
46784;DHT22;32544;52.832;13.816;2023-05-07T04:26:07;24.50;44.40
46784;DHT22;32544;52.832;13.816;2023-05-07T04:27:12;24.50;44.40
46784;DHT22;32544;52.832;13.816;2023-05-07T04:28:13;24.50;44.40
46784;DHT22;32544;52.832;13.816;2023-05-07T04:29:14;24.50;44.40
46784;DHT22;32544;52.832;13.816;2023-05-07T04:30:15;24.50;44.40
46784;DHT22;32544;52.832;13.816;2023-05-07T04:31:16;24.50;44.50
46784;DHT22;32544;52.832;13.816;2023-05-07T04:32:18;24.50;44.40
46784;DHT22;32544;52.832;13.816;2023-05-07T04:33:19;24.50;44.40
46784;DHT22;32544;52.832;13.816;2023-05-07T04:34:21;24.50;44.50
46784;DHT22;32544;52.832;13.816;2023-05-07T04:35:22;24.50;44.50
46784;DHT22;32544;52.832;13.816;2023-05-07T04:36:23;24.50;44.50
46784;DHT22;32544;52.832;13.816;2023-05-07T04:37:33;24.50;44.50
46784;DHT22;32544;52.832;13.816;2023-05-07T04:38:35;24.50;44.50
46784;DHT22;32544;52.832;13.816;2023-05-07T04:39:37;24.50;44.50
46784;DHT22;32544;52.832;13.816;2023-05-07T04:40:38;24.50;44.50
46784;DHT22;32544;52.832;13.816;2023-05-07T04:41:40;24.50;44.50
46784;DHT22;32544;52.832;13.816;2023-05-07T04:42:41;24.50;44.50
46784;DHT22;32544;52.832;13.816;2023-05-07T04:43:42;24.40;44.40
46784;DHT22;32544;52.832;13.816;2023-05-07T04:44:44;24.50;44.50
46784;DHT22;32544;52.832;13.816;2023-05-07T04:45:45;24.40;44.50
46784;DHT22;32544;52.832;13.816;2023-05-07T04:46:46;24.40;44.50
46784;DHT22;32544;52.832;13.816;2023-05-07T04:47:47;24.40;44.50
46784;DHT22;32544;52.832;13.816;2023-05-07T04:48:47;24.50;44.50
46784;DHT22;32544;52.832;13.816;2023-05-07T04:49:48;24.40;44.50
46784;DHT22;32544;52.832;13.816;2023-05-07T04:50:49;24.40;44.50
46784;DHT22;32544;52.832;13.816;2023-05-07T04:51:50;24.50;44.50
46784;DHT22;32544;52.832;13.816;2023-05-07T04:52:54;24.40;44.50
46784;DHT22;32544;52.832;13.816;2023-05-07T04:53:57;24.40;44.50
46784;DHT22;32544;52.832;13.816;2023-05-07T04:54:59;24.50;44.50
46784;DHT22;32544;52.832;13.816;2023-05-07T04:56:00;24.50;44.50
46784;DHT22;32544;52.832;13.816;2023-05-07T04:57:06;24.40;44.50
46784;DHT22;32544;52.832;13.816;2023-05-07T04:58:08;24.40;44.50
46784;DHT22;32544;52.832;13.816;2023-05-07T04:59:10;24.40;44.50
46784;DHT22;32544;52.832;13.816;2023-05-07T05:00:11;24.40;44.50
46784;DHT22;32544;52.832;13.816;2023-05-07T05:01:15;24.40;44.50
46784;DHT22;32544;52.832;13.816;2023-05-07T05:02:16;24.40;44.50
46784;DHT22;32544;52.832;13.816;2023-05-07T05:03:17;24.40;44.50
46784;DHT22;32544;52.832;13.816;2023-05-07T05:04:17;24.40;44.50
46784;DHT22;32544;52.832;13.816;2023-05-07T05:05:18;24.40;44.50
46784;DHT22;32544;52.832;13.816;2023-05-07T05:06:19;24.40;44.50
46784;DHT22;32544;52.832;13.816;2023-05-07T05:07:20;24.30;44.60
46784;DHT22;32544;52.832;13.816;2023-05-07T05:08:20;24.40;44.60
46784;DHT22;32544;52.832;13.816;2023-05-07T05:09:21;24.40;44.50
46784;DHT22;32544;52.832;13.816;2023-05-07T05:10:21;24.40;44.50
46784;DHT22;32544;52.832;13.816;2023-05-07T05:11:24;24.30;44.50
46784;DHT22;32544;52.832;13.816;2023-05-07T05:12:24;24.40;44.60
46784;DHT22;32544;52.832;13.816;2023-05-07T05:13:25;24.40;44.60
46784;DHT22;32544;52.832;13.816;2023-05-07T05:14:26;24.40;44.60
46784;DHT22;32544;52.832;13.816;2023-05-07T05:15:27;24.40;44.60
46784;DHT22;32544;52.832;13.816;2023-05-07T05:16:27;24.30;44.50
46784;DHT22;32544;52.832;13.816;2023-05-07T05:17:28;24.40;45.20
46784;DHT22;32544;52.832;13.816;2023-05-07T05:18:28;24.40;44.60
46784;DHT22;32544;52.832;13.816;2023-05-07T05:19:29;24.40;44.60
46784;DHT22;32544;52.832;13.816;2023-05-07T05:20:30;24.40;44.60
46784;DHT22;32544;52.832;13.816;2023-05-07T05:21:31;24.40;44.60
46784;DHT22;32544;52.832;13.816;2023-05-07T05:22:38;24.30;44.50
46784;DHT22;32544;52.832;13.816;2023-05-07T05:23:40;24.40;44.60
46784;DHT22;32544;52.832;13.816;2023-05-07T05:24:40;24.40;44.50
46784;DHT22;32544;52.832;13.816;2023-05-07T05:25:41;24.40;44.50
46784;DHT22;32544;52.832;13.816;2023-05-07T05:26:44;24.40;44.50
46784;DHT22;32544;52.832;13.816;2023-05-07T05:27:45;24.40;44.50
46784;DHT22;32544;52.832;13.816;2023-05-07T05:28:46;24.40;44.50
46784;DHT22;32544;52.832;13.816;2023-05-07T05:29:46;24.40;44.50
46784;DHT22;32544;52.832;13.816;2023-05-07T05:30:47;24.40;44.50
46784;DHT22;32544;52.832;13.816;2023-05-07T05:31:47;24.40;44.50
46784;DHT22;32544;52.832;13.816;2023-05-07T05:32:48;24.40;44.50
46784;DHT22;32544;52.832;13.816;2023-05-07T05:33:49;24.40;44.50
46784;DHT22;32544;52.832;13.816;2023-05-07T05:34:49;24.40;44.50
46784;DHT22;32544;52.832;13.816;2023-05-07T05:35:51;24.40;44.40
46784;DHT22;32544;52.832;13.816;2023-05-07T05:36:52;24.50;44.50
46784;DHT22;32544;52.832;13.816;2023-05-07T05:37:53;24.50;44.50
46784;DHT22;32544;52.832;13.816;2023-05-07T05:38:53;24.50;44.40
46784;DHT22;32544;52.832;13.816;2023-05-07T05:39:58;24.50;44.40
46784;DHT22;32544;52.832;13.816;2023-05-07T05:41:00;24.50;44.40
46784;DHT22;32544;52.832;13.816;2023-05-07T05:42:03;24.50;44.40
46784;DHT22;32544;52.832;13.816;2023-05-07T05:43:05;24.50;44.40
46784;DHT22;32544;52.832;13.816;2023-05-07T05:44:06;24.50;44.30
46784;DHT22;32544;52.832;13.816;2023-05-07T05:45:07;24.50;44.40
46784;DHT22;32544;52.832;13.816;2023-05-07T05:46:09;24.50;44.40
46784;DHT22;32544;52.832;13.816;2023-05-07T05:47:12;24.50;44.30
46784;DHT22;32544;52.832;13.816;2023-05-07T05:48:13;24.50;44.30
46784;DHT22;32544;52.832;13.816;2023-05-07T05:49:14;24.50;44.40
46784;DHT22;32544;52.832;13.816;2023-05-07T05:50:15;24.50;44.40
46784;DHT22;32544;52.832;13.816;2023-05-07T05:51:15;24.50;44.30
46784;DHT22;32544;52.832;13.816;2023-05-07T05:52:16;24.50;44.30
46784;DHT22;32544;52.832;13.816;2023-05-07T05:53:17;24.50;44.30
46784;DHT22;32544;52.832;13.816;2023-05-07T05:54:18;24.50;44.20
46784;DHT22;32544;52.832;13.816;2023-05-07T05:55:18;24.50;44.20
46784;DHT22;32544;52.832;13.816;2023-05-07T05:56:20;24.50;44.80
46784;DHT22;32544;52.832;13.816;2023-05-07T05:57:21;24.50;44.20
46784;DHT22;32544;52.832;13.816;2023-05-07T05:58:22;24.50;44.20
46784;DHT22;32544;52.832;13.816;2023-05-07T05:59:28;24.50;44.20
46784;DHT22;32544;52.832;13.816;2023-05-07T06:00:29;24.50;44.20
46784;DHT22;32544;52.832;13.816;2023-05-07T06:01:35;24.50;44.50
46784;DHT22;32544;52.832;13.816;2023-05-07T06:02:37;24.50;44.20
46784;DHT22;32544;52.832;13.816;2023-05-07T06:03:38;24.50;44.20
46784;DHT22;32544;52.832;13.816;2023-05-07T06:04:44;24.50;44.10
46784;DHT22;32544;52.832;13.816;2023-05-07T06:05:49;24.50;44.10
46784;DHT22;32544;52.832;13.816;2023-05-07T06:06:50;24.50;44.10
46784;DHT22;32544;52.832;13.816;2023-05-07T06:07:50;24.50;44.20
46784;DHT22;32544;52.832;13.816;2023-05-07T06:08:52;24.50;44.10
46784;DHT22;32544;52.832;13.816;2023-05-07T06:09:58;24.50;44.10
46784;DHT22;32544;52.832;13.816;2023-05-07T06:10:59;24.50;44.10
46784;DHT22;32544;52.832;13.816;2023-05-07T06:12:00;24.50;44.10
46784;DHT22;32544;52.832;13.816;2023-05-07T06:13:01;24.50;44.10
46784;DHT22;32544;52.832;13.816;2023-05-07T06:14:02;24.50;44.10
46784;DHT22;32544;52.832;13.816;2023-05-07T06:15:04;24.50;44.10
46784;DHT22;32544;52.832;13.816;2023-05-07T06:16:05;24.50;44.10
46784;DHT22;32544;52.832;13.816;2023-05-07T06:17:06;24.50;44.10
46784;DHT22;32544;52.832;13.816;2023-05-07T06:18:07;24.50;44.10
46784;DHT22;32544;52.832;13.816;2023-05-07T06:19:07;24.50;44.10
46784;DHT22;32544;52.832;13.816;2023-05-07T06:20:08;24.50;44.10
46784;DHT22;32544;52.832;13.816;2023-05-07T06:21:09;24.50;44.10
46784;DHT22;32544;52.832;13.816;2023-05-07T06:22:10;24.50;44.10